»·PEaware :: N357G KBFL-KBUR

N357G :: KBFL-KBUR

FLIGHT INFORMATION

Flight Status: Arrived
Operator: Privately registered:
United States
More flights under this callsign
Pilot: Graham S. (10862)
Aircraft: Unknown
(P28U)
More flights by this aircraft type
Origin: KBFL Meadows
United States
Destination: KBUR Bob Hope-Burbank
United States
More flights between these airports :: More routes between these airports
Route: LHS
File this flight plan on PilotEdge
Remarks:
Altitude:
(Current/Filed)
7,500ft
Speed:
(Current/Filed)
140kts
Departed: 28-Dec-17 12:35 PM
Arrived: 28-Dec-17 01:17 PM
Distance/Time
Traveled:
82nm/0:42
Distance/Time
To Go:
Arrived

Flight Plot

Page will automatically refresh every two minutes.

Flight plan parsing failed; only flown route is shown


Map Options




Map Legend


Flown Route
Filed Route
Departure Airport
Arrival Airport
Navaid (VOR, NDB)
Fix

Horizontal Profiles

Position Reports

Time Latitude Longitude Heading Altitude Ground
Speed
28-Dec-17 12:33 35.429371 -119.046101 226 509ft 0kts
28-Dec-17 12:34 35.429371 -119.046101 226 509ft 0kts
28-Dec-17 12:35 35.429371 -119.046101 226 509ft 0kts
28-Dec-17 12:36 35.429371 -119.046101 226 509ft 0kts
28-Dec-17 12:37 35.429371 -119.046101 226 509ft 0kts
28-Dec-17 12:38 35.427822 -119.045243 127 509ft 2kts
28-Dec-17 12:39 35.426467 -119.044520 179 509ft 5kts
28-Dec-17 12:40 35.425685 -119.044788 227 509ft 0kts
28-Dec-17 12:41 35.431458 -119.053419 312 641ft 88kts
28-Dec-17 12:42 35.435028 -119.073267 153 1638ft 91kts
28-Dec-17 12:43 35.418290 -119.052151 129 2737ft 89kts
28-Dec-17 12:44 35.397676 -119.033490 153 3673ft 99kts
28-Dec-17 12:45 35.372029 -119.017348 152 4548ft 105kts
28-Dec-17 12:46 35.347495 -119.001528 152 5366ft 106kts
28-Dec-17 12:47 35.321255 -118.984628 152 6199ft 107kts
28-Dec-17 12:48 35.294739 -118.967538 152 7000ft 108kts
28-Dec-17 12:49 35.268051 -118.950352 152 7757ft 109kts
28-Dec-17 12:50 35.239262 -118.931953 153 7803ft 127kts
28-Dec-17 12:51 35.205991 -118.910636 152 7338ft 139kts
28-Dec-17 12:52 35.171733 -118.888800 156 7476ft 146kts
28-Dec-17 12:53 35.137639 -118.866938 150 7483ft 134kts
28-Dec-17 12:54 35.107625 -118.847672 150 7483ft 133kts
28-Dec-17 12:55 35.074880 -118.826677 150 7484ft 133kts
28-Dec-17 12:56 35.042267 -118.805777 150 7483ft 132kts
28-Dec-17 12:57 35.009545 -118.784879 150 7483ft 132kts
28-Dec-17 12:58 34.976906 -118.764018 150 7484ft 132kts
28-Dec-17 12:59 34.944273 -118.743276 150 7483ft 132kts
28-Dec-17 13:00 34.911810 -118.722572 150 7483ft 132kts
28-Dec-17 13:01 34.880337 -118.702509 150 7487ft 132kts
28-Dec-17 13:02 34.847707 -118.681754 151 7486ft 132kts
28-Dec-17 13:03 34.815090 -118.660974 150 7484ft 132kts
28-Dec-17 13:04 34.782349 -118.640218 146 7509ft 134kts
28-Dec-17 13:05 34.750803 -118.620092 146 7511ft 140kts
28-Dec-17 13:06 34.715870 -118.597964 149 7506ft 142kts
28-Dec-17 13:07 34.679865 -118.575595 159 7464ft 140kts
28-Dec-17 13:08 34.641596 -118.558182 159 6569ft 149kts
28-Dec-17 13:09 34.603139 -118.540730 159 5997ft 148kts
28-Dec-17 13:10 34.564685 -118.523259 159 5477ft 141kts
28-Dec-17 13:11 34.529205 -118.507081 159 5617ft 140kts
28-Dec-17 13:12 34.492509 -118.490497 158 5617ft 141kts
28-Dec-17 13:13 34.455541 -118.473729 159 5617ft 141kts
28-Dec-17 13:14 34.418954 -118.457158 158 5630ft 140kts
28-Dec-17 13:15 34.381893 -118.438831 154 5292ft 140kts
28-Dec-17 13:16 34.346367 -118.419968 162 4791ft 129kts
28-Dec-17 13:17 34.312966 -118.414126 170 3904ft 125kts
28-Dec-17 13:18 34.284608 -118.414453 146 2897ft 109kts
28-Dec-17 13:19 34.262612 -118.390428 132 2354ft 102kts
28-Dec-17 13:20 34.240883 -118.372518 212 2210ft 112kts
28-Dec-17 13:21 34.212507 -118.383525 198 1807ft 97kts
28-Dec-17 13:22 34.197936 -118.369677 90 861ft 73kts
28-Dec-17 13:23 34.198550 -118.357977 359 780ft 0kts
28-Dec-17 13:24 34.198550 -118.357977 358 780ft 0kts
28-Dec-17 13:25 34.198550 -118.357977 358 780ft 0kts
28-Dec-17 13:26 34.198557 -118.357977 358 780ft 2kts
28-Dec-17 13:27 34.201146 -118.359174 271 780ft 0kts
28-Dec-17 13:28 34.201146 -118.359174 271 780ft 0kts
28-Dec-17 13:29 34.201146 -118.359174 271 780ft 0kts

Navigation Log

Ident Type
Flight plan parsing failed, navigation log unavailable